createdAt,value
2023-05-24T00:01:26.855Z,55.28
2023-05-24T00:04:03.121Z,55.72
2023-05-24T00:06:35.881Z,56.63
2023-05-24T00:09:06.765Z,57.28
2023-05-24T00:11:36.454Z,57.65
2023-05-24T00:14:05.716Z,57.47
2023-05-24T00:16:36.806Z,57.43
2023-05-24T00:19:06.251Z,57.44
2023-05-24T00:21:37.946Z,57.86
2023-05-24T00:24:07.675Z,58.20
2023-05-24T00:26:37.124Z,57.85
2023-05-24T00:29:07.133Z,58.15
2023-05-24T00:31:36.752Z,57.48
2023-05-24T00:34:06.303Z,58.20
2023-05-24T00:36:35.613Z,57.99
2023-05-24T00:39:05.990Z,57.74
2023-05-24T00:41:36.493Z,56.44
2023-05-24T00:44:05.923Z,56.85
2023-05-24T00:46:36.616Z,56.63
2023-05-24T00:49:06.202Z,56.27
2023-05-24T00:51:36.196Z,57.48
2023-05-24T00:54:05.623Z,56.75
2023-05-24T00:56:35.301Z,56.30
2023-05-24T00:59:05.142Z,56.42
2023-05-24T01:01:34.284Z,56.67
2023-05-24T01:04:04.767Z,56.87
2023-05-24T01:06:46.016Z,56.43
2023-05-24T01:09:52.393Z,56.34
2023-05-24T01:12:29.344Z,56.37
2023-05-24T01:15:16.676Z,55.61
2023-05-24T01:18:02.682Z,55.94
2023-05-24T01:20:35.013Z,56.06
2023-05-24T01:23:54.731Z,56.13
2023-05-24T01:26:50.119Z,56.12
2023-05-24T01:29:20.326Z,56.42
2023-05-24T01:31:50.169Z,56.39
2023-05-24T01:34:20.415Z,56.47
2023-05-24T01:36:50.571Z,56.42
2023-05-24T01:39:21.150Z,56.20
2023-05-24T01:41:53.348Z,56.39
2023-05-24T01:44:37.124Z,56.06
2023-05-24T01:47:37.067Z,56.35
2023-05-24T01:50:22.922Z,57.45
2023-05-24T01:52:55.216Z,55.91
2023-05-24T01:55:29.673Z,57.17
2023-05-24T01:58:05.221Z,56.43
2023-05-24T02:00:36.083Z,56.43
2023-05-24T02:03:08.176Z,56.26
2023-05-24T02:05:38.739Z,58.58
2023-05-24T02:08:12.688Z,55.99
2023-05-24T02:10:42.847Z,56.21
2023-05-24T02:13:13.551Z,56.65
2023-05-24T02:15:42.923Z,55.75
2023-05-24T02:18:15.630Z,55.60
2023-05-24T02:20:45.485Z,55.84
2023-05-24T02:23:15.730Z,55.74
2023-05-24T02:25:45.274Z,56.17
2023-05-24T02:28:14.580Z,55.55
2023-05-24T02:30:45.908Z,55.22
2023-05-24T02:33:15.508Z,55.01
2023-05-24T02:35:45.354Z,54.99
2023-05-24T02:38:14.572Z,54.29
2023-05-24T02:40:43.992Z,53.55
2023-05-24T02:43:13.836Z,51.04
2023-05-24T02:45:43.113Z,50.32
2023-05-24T02:48:12.924Z,49.16
2023-05-24T02:50:42.716Z,49.28
2023-05-24T02:53:13.085Z,46.97
2023-05-24T02:55:45.006Z,48.04
2023-05-24T02:58:15.425Z,47.52
2023-05-24T03:00:46.811Z,46.60
2023-05-24T03:03:16.661Z,46.59
2023-05-24T03:05:47.341Z,45.80
2023-05-24T03:08:16.817Z,45.55
2023-05-24T03:10:46.283Z,45.08
2023-05-24T03:13:16.258Z,45.89
2023-05-24T03:15:45.735Z,45.20
2023-05-24T03:18:15.107Z,45.50
2023-05-24T03:20:46.646Z,44.51
2023-05-24T03:23:16.175Z,46.00
2023-05-24T03:25:46.297Z,46.28
2023-05-24T03:28:16.204Z,46.06
2023-05-24T03:30:46.375Z,47.96
2023-05-24T03:33:17.017Z,46.41
2023-05-24T03:35:46.873Z,48.07
2023-05-24T03:38:16.818Z,46.10
2023-05-24T03:40:49.287Z,45.82
2023-05-24T03:43:22.232Z,45.92
2023-05-24T03:45:58.811Z,45.53
2023-05-24T03:48:28.095Z,46.04
2023-05-24T03:50:57.647Z,46.55
2023-05-24T03:53:27.501Z,46.10
2023-05-24T03:55:57.618Z,48.35
2023-05-24T03:58:27.603Z,46.79
2023-05-24T04:00:56.730Z,48.54
2023-05-24T04:03:27.261Z,48.94
2023-05-24T04:05:57.354Z,47.29
2023-05-24T04:08:26.827Z,48.75
2023-05-24T04:10:56.166Z,47.05
2023-05-24T04:13:25.755Z,47.04
2023-05-24T04:15:56.051Z,48.48
2023-05-24T04:18:25.386Z,47.35
2023-05-24T04:20:57.279Z,47.55
2023-05-24T04:23:26.745Z,47.99
2023-05-24T04:25:56.222Z,49.69
2023-05-24T04:28:27.288Z,50.09
2023-05-24T04:30:58.921Z,47.30
2023-05-24T04:33:29.079Z,46.69
2023-05-24T04:35:58.652Z,46.67
2023-05-24T04:38:30.853Z,46.97
2023-05-24T04:41:00.794Z,47.73
2023-05-24T04:43:30.499Z,47.07
2023-05-24T04:45:59.699Z,47.02
2023-05-24T04:48:28.886Z,48.05
2023-05-24T04:50:59.910Z,47.85
2023-05-24T04:53:29.451Z,48.85
2023-05-24T04:55:58.802Z,45.83
2023-05-24T04:58:28.675Z,45.84
2023-05-24T05:03:55.083Z,46.67
2023-05-24T05:06:24.680Z,49.66
2023-05-24T05:08:54.109Z,45.96
2023-05-24T05:11:23.522Z,46.59
2023-05-24T05:13:53.036Z,46.99
2023-05-24T05:16:22.358Z,46.13
2023-05-24T05:18:53.034Z,43.87
2023-05-24T05:21:22.559Z,42.41
2023-05-24T05:23:51.991Z,42.63
2023-05-24T05:26:20.918Z,42.17
2023-05-24T05:28:50.435Z,40.69
2023-05-24T05:31:19.795Z,41.03
2023-05-24T05:33:49.038Z,40.93
2023-05-24T05:36:19.144Z,39.79
2023-05-24T05:38:48.260Z,38.74
2023-05-24T05:41:17.704Z,38.58
2023-05-24T05:43:47.392Z,38.01
2023-05-24T05:46:17.188Z,37.41
2023-05-24T05:48:46.771Z,37.46
2023-05-24T05:51:15.971Z,37.29
2023-05-24T05:53:45.705Z,37.91
2023-05-24T05:56:15.225Z,38.62
2023-05-24T05:58:44.606Z,39.49
2023-05-24T06:01:13.691Z,39.49
2023-05-24T06:03:43.309Z,38.21
2023-05-24T06:06:13.009Z,36.99
2023-05-24T06:08:42.106Z,38.80
2023-05-24T06:11:11.768Z,38.67
2023-05-24T06:13:41.065Z,38.46
2023-05-24T06:16:11.184Z,38.52
2023-05-24T06:18:47.388Z,36.81
2023-05-24T06:21:23.090Z,38.94
2023-05-24T06:23:53.025Z,39.59
2023-05-24T06:26:23.661Z,37.19
2023-05-24T06:28:53.122Z,37.09
2023-05-24T06:31:22.345Z,38.18
2023-05-24T06:34:02.740Z,37.39
2023-05-24T06:36:43.632Z,38.95
2023-05-24T06:39:14.812Z,38.45
2023-05-24T06:41:47.401Z,37.30
2023-05-24T06:44:17.667Z,38.77
2023-05-24T06:46:47.593Z,37.28
2023-05-24T06:49:17.382Z,35.58
2023-05-24T06:51:49.650Z,38.28
2023-05-24T06:54:19.511Z,37.77
2023-05-24T06:56:48.949Z,37.01
2023-05-24T06:59:18.211Z,37.24
2023-05-24T07:01:47.641Z,38.66
2023-05-24T07:04:17.019Z,37.15
2023-05-24T07:06:47.240Z,36.48
2023-05-24T07:09:17.006Z,37.96
2023-05-24T07:11:46.429Z,39.39
2023-05-24T07:14:15.775Z,37.96
2023-05-24T07:16:45.075Z,39.68
2023-05-24T07:19:14.761Z,41.31
2023-05-24T07:21:44.330Z,37.62
2023-05-24T07:24:16.115Z,38.13
2023-05-24T07:26:46.041Z,37.58
2023-05-24T07:29:15.177Z,38.44
2023-05-24T07:31:44.454Z,38.40
2023-05-24T07:34:13.819Z,40.63
2023-05-24T07:36:43.336Z,40.94
2023-05-24T07:39:14.209Z,40.47
2023-05-24T07:41:43.876Z,40.27
2023-05-24T07:44:14.614Z,39.04
2023-05-24T07:46:43.939Z,39.02
2023-05-24T07:49:13.827Z,41.96
2023-05-24T07:51:43.038Z,40.40
2023-05-24T07:54:12.784Z,41.20
2023-05-24T07:56:44.276Z,40.14
2023-05-24T07:59:13.904Z,40.21
2023-05-24T08:01:43.383Z,40.75
2023-05-24T08:04:13.089Z,40.54
2023-05-24T08:06:43.001Z,40.12
2023-05-24T08:09:12.286Z,41.32
2023-05-24T08:11:43.135Z,40.83
2023-05-24T08:14:12.740Z,40.07
2023-05-24T08:16:41.884Z,41.50
2023-05-24T08:19:12.009Z,40.53
2023-05-24T08:21:42.991Z,39.60
2023-05-24T08:24:12.931Z,40.59
2023-05-24T08:26:42.370Z,40.26
2023-05-24T08:29:12.137Z,41.38
2023-05-24T08:31:41.375Z,40.95
2023-05-24T08:34:12.135Z,39.97
2023-05-24T08:36:43.269Z,41.62
2023-05-24T08:39:12.864Z,40.88
2023-05-24T08:41:43.015Z,41.33
2023-05-24T08:44:14.862Z,41.06
2023-05-24T08:46:44.977Z,40.30
2023-05-24T08:49:15.877Z,40.76
2023-05-24T08:51:46.384Z,42.02
2023-05-24T08:54:17.432Z,41.00
2023-05-24T08:56:47.141Z,41.59
2023-05-24T08:59:20.659Z,41.49
2023-05-24T09:01:54.971Z,41.51
2023-05-24T09:04:25.662Z,41.55
2023-05-24T09:06:57.915Z,42.55
2023-05-24T09:09:30.380Z,41.71
2023-05-24T09:12:03.226Z,43.16
2023-05-24T09:14:32.604Z,42.56
2023-05-24T09:17:02.274Z,42.56
2023-05-24T09:19:31.603Z,41.87
2023-05-24T09:22:01.911Z,41.41
2023-05-24T09:24:31.822Z,41.35
2023-05-24T09:27:08.328Z,42.03
2023-05-24T09:29:42.544Z,42.29
2023-05-24T09:32:12.091Z,41.73
2023-05-24T09:34:43.200Z,40.37
2023-05-24T09:37:20.371Z,40.78
2023-05-24T09:39:54.103Z,40.08
2023-05-24T09:42:29.651Z,41.48
2023-05-24T09:45:11.572Z,41.12
2023-05-24T09:47:44.286Z,41.79
2023-05-24T09:50:18.468Z,41.63
2023-05-24T09:52:48.085Z,41.83
2023-05-24T09:55:19.290Z,43.15
2023-05-24T09:58:15.329Z,42.36
2023-05-24T10:00:45.199Z,41.26
2023-05-24T10:03:16.443Z,42.36
2023-05-24T10:05:49.392Z,43.04
2023-05-24T10:08:19.557Z,41.16
2023-05-24T10:10:48.890Z,40.81
2023-05-24T10:13:20.499Z,42.55
2023-05-24T10:15:56.595Z,42.76
2023-05-24T10:18:26.247Z,42.06
2023-05-24T10:21:01.995Z,42.71
2023-05-24T10:23:33.727Z,41.86
2023-05-24T10:26:09.919Z,42.16
2023-05-24T10:28:54.396Z,40.99
2023-05-24T10:31:30.162Z,41.62
2023-05-24T10:34:07.975Z,42.41
2023-05-24T10:36:45.204Z,43.66
2023-05-24T10:39:15.220Z,41.82
2023-05-24T10:41:45.177Z,41.12
2023-05-24T10:44:20.737Z,42.05
2023-05-24T10:47:19.072Z,42.70
2023-05-24T10:49:54.051Z,42.44
2023-05-24T10:52:23.548Z,42.19
2023-05-24T10:55:10.719Z,41.89
2023-05-24T10:57:42.362Z,42.20
2023-05-24T11:00:35.313Z,42.84
2023-05-24T11:03:24.837Z,42.22
2023-05-24T11:05:56.172Z,41.69
2023-05-24T11:08:34.453Z,41.72
2023-05-24T11:11:24.363Z,41.52
2023-05-24T11:13:58.950Z,43.58
2023-05-24T11:16:55.056Z,42.45
2023-05-24T11:19:36.928Z,42.37
2023-05-24T11:22:09.438Z,42.00
2023-05-24T11:24:39.533Z,41.58
2023-05-24T11:27:09.716Z,43.46
2023-05-24T11:29:46.308Z,42.17
2023-05-24T11:32:20.636Z,43.29
2023-05-24T11:34:51.230Z,43.75
2023-05-24T11:37:28.673Z,42.81
2023-05-24T11:40:06.480Z,43.48
2023-05-24T11:42:38.641Z,42.35
2023-05-24T11:45:11.765Z,43.09
2023-05-24T11:47:41.898Z,43.54
2023-05-24T11:50:11.848Z,43.56
2023-05-24T11:52:42.583Z,42.43
2023-05-24T11:55:16.653Z,43.01
2023-05-24T11:57:55.750Z,42.73
2023-05-24T12:00:29.239Z,43.04
2023-05-24T12:03:06.470Z,43.42
2023-05-24T12:05:38.453Z,42.72
2023-05-24T12:08:13.522Z,42.58
2023-05-24T12:10:45.321Z,42.38
2023-05-24T12:13:27.099Z,42.81
2023-05-24T12:15:59.394Z,42.30
2023-05-24T12:18:30.768Z,42.35
2023-05-24T12:21:00.399Z,42.07
2023-05-24T12:23:33.067Z,42.46
2023-05-24T12:26:03.436Z,42.15
2023-05-24T12:28:41.447Z,42.53
2023-05-24T12:31:12.037Z,42.16
2023-05-24T12:33:42.398Z,42.99
2023-05-24T12:36:12.712Z,42.66
2023-05-24T12:38:42.272Z,42.23
2023-05-24T12:41:14.285Z,42.34
2023-05-24T12:43:45.590Z,42.37
2023-05-24T12:46:15.089Z,42.79
2023-05-24T12:48:45.334Z,42.54
2023-05-24T12:51:14.774Z,43.83
2023-05-24T12:53:44.610Z,42.22
2023-05-24T12:56:14.012Z,41.57
2023-05-24T12:58:43.852Z,42.52
2023-05-24T13:01:13.780Z,43.49
2023-05-24T13:03:43.114Z,41.31
2023-05-24T13:06:13.262Z,41.39
2023-05-24T13:08:43.364Z,41.46
2023-05-24T13:11:12.903Z,43.54
2023-05-24T13:13:42.312Z,44.65
2023-05-24T13:16:12.190Z,43.83
2023-05-24T13:18:41.543Z,43.50
2023-05-24T13:21:12.328Z,43.37
2023-05-24T13:23:44.476Z,43.36
2023-05-24T13:26:14.177Z,43.01
2023-05-24T13:29:07.684Z,44.06
2023-05-24T13:31:33.830Z,42.06
2023-05-24T13:34:04.185Z,42.02
2023-05-24T13:36:33.558Z,42.60
2023-05-24T13:39:14.864Z,42.93
2023-05-24T13:41:46.122Z,42.23
2023-05-24T13:44:17.724Z,43.39
2023-05-24T13:46:48.300Z,43.79
2023-05-24T13:49:18.386Z,42.29
2023-05-24T13:51:48.235Z,43.08
2023-05-24T13:54:18.760Z,42.30
2023-05-24T13:56:50.142Z,43.07
2023-05-24T13:59:20.202Z,42.81
2023-05-24T14:01:49.660Z,43.34
2023-05-24T14:04:19.020Z,42.88
2023-05-24T14:06:49.505Z,44.17
2023-05-24T14:09:22.340Z,43.72
2023-05-24T14:11:52.070Z,42.86
2023-05-24T14:14:58.548Z,43.21
2023-05-24T14:17:12.453Z,43.77
2023-05-24T14:19:42.099Z,44.22
2023-05-24T14:22:11.364Z,43.65
2023-05-24T14:24:40.645Z,42.73
2023-05-24T14:27:10.195Z,43.77
2023-05-24T14:29:39.603Z,42.96
2023-05-24T14:32:09.496Z,43.25
2023-05-24T14:34:39.294Z,44.00
2023-05-24T14:37:08.844Z,44.97
2023-05-24T14:39:37.999Z,45.57
2023-05-24T14:42:08.208Z,46.40
2023-05-24T14:44:37.661Z,46.17
2023-05-24T14:47:07.659Z,46.91
2023-05-24T14:49:37.330Z,48.19
2023-05-24T14:52:06.883Z,48.57
2023-05-24T14:54:36.873Z,49.70
2023-05-24T14:57:08.378Z,51.53
2023-05-24T14:59:38.563Z,50.97
2023-05-24T15:02:08.874Z,50.89
2023-05-24T15:04:38.576Z,53.08
2023-05-24T15:07:07.911Z,53.59
2023-05-24T15:09:37.430Z,54.27
2023-05-24T15:12:08.816Z,56.65
2023-05-24T15:14:39.247Z,57.33
2023-05-24T15:17:09.067Z,60.77
2023-05-24T15:19:38.883Z,67.71
2023-05-24T15:22:11.704Z,69.52
2023-05-24T15:24:41.867Z,68.81
2023-05-24T15:27:12.174Z,70.24
2023-05-24T15:29:41.562Z,70.23
2023-05-24T15:32:10.859Z,69.23
2023-05-24T15:34:40.733Z,68.66
2023-05-24T15:37:09.910Z,69.19
2023-05-24T15:39:40.038Z,68.24
2023-05-24T15:42:09.298Z,66.24
2023-05-24T15:44:39.168Z,66.05
2023-05-24T15:47:08.986Z,64.36
2023-05-24T15:49:40.658Z,64.18
2023-05-24T15:52:11.307Z,63.61
2023-05-24T15:54:42.044Z,64.88
2023-05-24T15:57:11.918Z,63.36
2023-05-24T15:59:41.822Z,65.15
2023-05-24T16:02:12.430Z,66.05
2023-05-24T16:04:42.016Z,65.61
2023-05-24T16:07:11.501Z,66.75
2023-05-24T16:09:42.175Z,66.50
2023-05-24T16:12:11.481Z,67.34
2023-05-24T16:14:40.842Z,68.01
2023-05-24T16:17:11.589Z,67.65
2023-05-24T16:19:41.103Z,67.80
2023-05-24T16:22:10.901Z,67.99
2023-05-24T16:24:40.318Z,67.99
2023-05-24T16:27:10.429Z,68.33
2023-05-24T16:29:40.609Z,68.72
2023-05-24T16:32:10.265Z,68.74
2023-05-24T16:34:55.443Z,68.79
2023-05-24T16:37:26.888Z,68.80
2023-05-24T16:39:56.361Z,68.58
2023-05-24T16:42:25.836Z,68.62
2023-05-24T16:44:55.859Z,69.03
2023-05-24T16:47:25.774Z,68.71
2023-05-24T16:49:57.599Z,69.36
2023-05-24T16:52:27.149Z,69.38
2023-05-24T16:54:56.756Z,69.78
2023-05-24T16:57:26.082Z,70.00
2023-05-24T16:59:55.506Z,70.97
2023-05-24T17:02:24.808Z,70.65
2023-05-24T17:04:55.056Z,70.38
2023-05-24T17:07:24.460Z,70.43
2023-05-24T17:09:54.485Z,70.17
2023-05-24T17:12:24.069Z,69.39
2023-05-24T17:14:53.951Z,70.12
2023-05-24T17:17:24.169Z,69.83
2023-05-24T17:19:54.027Z,68.42
2023-05-24T17:22:23.330Z,68.63
2023-05-24T17:24:52.651Z,69.33
2023-05-24T17:30:07.643Z,68.65
2023-05-24T17:32:37.869Z,69.29
2023-05-24T17:35:08.208Z,69.38
2023-05-24T17:37:38.306Z,69.54
2023-05-24T17:40:08.819Z,69.84
2023-05-24T17:42:38.653Z,69.83
2023-05-24T17:45:08.510Z,70.34
2023-05-24T17:47:38.049Z,70.68
2023-05-24T17:50:07.995Z,71.18
2023-05-24T17:52:37.692Z,70.83
2023-05-24T17:55:09.782Z,71.66
2023-05-24T17:57:39.410Z,71.23
2023-05-24T18:00:09.597Z,70.88
2023-05-24T18:02:47.827Z,70.80
2023-05-24T18:05:18.011Z,70.31
2023-05-24T18:07:47.772Z,70.57
2023-05-24T18:10:17.621Z,70.54
2023-05-24T18:12:47.883Z,70.22
2023-05-24T18:15:17.951Z,70.20
2023-05-24T18:17:47.631Z,69.59
2023-05-24T18:20:17.853Z,69.38
2023-05-24T18:22:48.255Z,68.31
2023-05-24T18:25:18.102Z,68.09
2023-05-24T18:27:47.907Z,68.60
2023-05-24T18:30:17.711Z,68.61
2023-05-24T18:33:03.453Z,67.13
2023-05-24T18:35:35.792Z,67.21
2023-05-24T18:38:06.323Z,67.21
2023-05-24T18:40:35.794Z,67.42
2023-05-24T18:43:05.125Z,67.05
2023-05-24T18:45:34.922Z,66.11
2023-05-24T18:48:04.261Z,67.10
2023-05-24T18:50:33.716Z,67.08
2023-05-24T18:53:03.161Z,66.31
2023-05-24T18:55:32.313Z,66.61
2023-05-24T18:58:01.860Z,66.94
2023-05-24T19:00:31.460Z,67.34
2023-05-24T19:03:01.008Z,66.96
2023-05-24T19:05:30.522Z,66.86
2023-05-24T19:08:00.478Z,66.59
2023-05-24T19:10:30.026Z,67.00
2023-05-24T19:12:59.585Z,67.34
2023-05-24T19:15:29.921Z,67.32
2023-05-24T19:17:59.473Z,66.95
2023-05-24T19:20:28.981Z,66.40
2023-05-24T19:22:58.659Z,67.00
2023-05-24T19:25:28.260Z,67.24
2023-05-24T19:27:59.979Z,67.23
2023-05-24T19:30:30.194Z,67.52
2023-05-24T19:32:59.745Z,67.19
2023-05-24T19:35:30.027Z,67.81
2023-05-24T19:37:59.801Z,67.75
2023-05-24T19:40:28.971Z,69.17
2023-05-24T19:42:58.254Z,68.98
2023-05-24T19:45:27.665Z,68.73
2023-05-24T19:47:57.159Z,69.00
2023-05-24T19:50:30.531Z,68.86
2023-05-24T19:53:00.675Z,69.18
2023-05-24T19:55:30.539Z,69.65
2023-05-24T19:58:00.568Z,69.71
2023-05-24T20:00:30.035Z,69.46
2023-05-24T20:02:59.681Z,69.96
2023-05-24T20:05:29.688Z,70.14
2023-05-24T20:07:59.754Z,70.99
2023-05-24T20:10:31.084Z,70.78
2023-05-24T20:13:00.865Z,71.26
2023-05-24T20:15:30.293Z,71.76
2023-05-24T20:18:00.403Z,71.91
2023-05-24T20:20:29.951Z,73.18
2023-05-24T20:22:59.763Z,72.81
2023-05-24T20:25:29.073Z,72.46
2023-05-24T20:27:58.682Z,72.24
2023-05-24T20:30:28.637Z,71.79
2023-05-24T20:32:58.610Z,71.20
2023-05-24T20:35:27.867Z,71.17
2023-05-24T20:37:57.232Z,70.60
2023-05-24T20:40:26.929Z,70.93
2023-05-24T20:42:56.637Z,70.67
2023-05-24T20:45:26.034Z,70.66
2023-05-24T20:47:56.203Z,71.61
2023-05-24T20:50:25.727Z,71.55
2023-05-24T20:52:54.959Z,71.24
2023-05-24T20:55:26.474Z,71.32
2023-05-24T20:57:56.697Z,71.66
2023-05-24T21:00:26.584Z,71.56
2023-05-24T21:02:56.093Z,71.78
2023-05-24T21:05:25.893Z,71.82
2023-05-24T21:07:55.069Z,71.19
2023-05-24T21:10:24.641Z,71.12
2023-05-24T21:12:54.167Z,71.20
2023-05-24T21:15:23.515Z,70.64
2023-05-24T21:17:52.840Z,69.30
2023-05-24T21:20:22.452Z,70.28
2023-05-24T21:22:52.443Z,69.61
2023-05-24T21:25:21.942Z,69.87
2023-05-24T21:27:51.721Z,68.66
2023-05-24T21:30:20.936Z,68.43
2023-05-24T21:32:50.606Z,68.67
2023-05-24T21:35:19.901Z,68.09
2023-05-24T21:37:49.341Z,68.15
2023-05-24T21:40:19.341Z,67.40
2023-05-24T21:42:48.356Z,67.69
2023-05-24T21:45:18.477Z,66.75
2023-05-24T21:47:47.557Z,66.61
2023-05-24T21:50:16.887Z,66.04
2023-05-24T21:52:46.616Z,66.16
2023-05-24T21:55:15.890Z,66.01
2023-05-24T21:57:45.110Z,65.51
2023-05-24T22:00:15.379Z,65.76
2023-05-24T22:02:44.832Z,65.71
2023-05-24T22:05:14.653Z,65.51
2023-05-24T22:07:44.598Z,65.72
2023-05-24T22:10:13.850Z,65.72
2023-05-24T22:12:43.502Z,66.15
2023-05-24T22:15:12.695Z,65.98
2023-05-24T22:17:42.946Z,66.16
2023-05-24T22:20:12.998Z,66.07
2023-05-24T22:22:49.486Z,66.46
2023-05-24T22:25:20.591Z,66.76
2023-05-24T22:27:50.240Z,66.28
2023-05-24T22:30:20.553Z,66.33
2023-05-24T22:32:49.946Z,67.04
2023-05-24T22:35:20.637Z,66.26
2023-05-24T22:37:50.211Z,65.77
2023-05-24T22:40:19.647Z,65.88
2023-05-24T22:42:48.983Z,65.38
2023-05-24T22:45:19.694Z,65.10
2023-05-24T22:47:50.121Z,65.43
2023-05-24T22:50:19.646Z,65.20
2023-05-24T22:52:49.643Z,64.92
2023-05-24T22:55:19.412Z,65.32
2023-05-24T22:57:48.602Z,65.49
2023-05-24T23:00:18.297Z,64.70
2023-05-24T23:02:48.059Z,65.10
2023-05-24T23:05:17.438Z,64.99
2023-05-24T23:07:47.186Z,65.18
2023-05-24T23:10:16.525Z,64.65
2023-05-24T23:12:45.567Z,65.27
2023-05-24T23:15:18.013Z,65.41
2023-05-24T23:17:49.135Z,65.23
2023-05-24T23:20:18.740Z,65.14
2023-05-24T23:22:48.012Z,64.90
2023-05-24T23:25:17.160Z,64.34
2023-05-24T23:27:46.671Z,65.06
2023-05-24T23:30:15.978Z,65.61
2023-05-24T23:32:45.644Z,65.80
2023-05-24T23:35:15.517Z,65.61
2023-05-24T23:37:44.933Z,65.71
2023-05-24T23:40:14.685Z,65.42
2023-05-24T23:42:44.248Z,65.42
2023-05-24T23:45:16.432Z,65.46
2023-05-24T23:47:46.747Z,65.15
2023-05-24T23:50:18.639Z,65.55
2023-05-24T23:52:48.440Z,65.81
2023-05-24T23:55:18.196Z,65.14
2023-05-24T23:57:48.791Z,65.25
